createdAt,value
2022-09-17T00:00:38.319Z,99.90
2022-09-17T00:03:04.908Z,1.00
2022-09-17T00:05:31.565Z,1.40
2022-09-17T00:07:58.116Z,1.00
2022-09-17T00:10:24.657Z,1.00
2022-09-17T00:12:51.421Z,1.00
2022-09-17T00:15:17.956Z,1.00
2022-09-17T00:17:44.538Z,1.00
2022-09-17T00:20:11.117Z,1.00
2022-09-17T00:22:38.080Z,1.00
2022-09-17T00:25:05.097Z,1.00
2022-09-17T00:27:31.718Z,1.00
2022-09-17T00:29:58.355Z,1.00
2022-09-17T00:32:24.902Z,1.00
2022-09-17T00:34:52.173Z,1.00
2022-09-17T00:37:19.188Z,1.00
2022-09-17T00:39:45.738Z,1.00
2022-09-17T00:42:12.770Z,1.00
2022-09-17T00:44:48.996Z,1.00
2022-09-17T00:47:27.075Z,1.00
2022-09-17T00:50:04.657Z,1.00
2022-09-17T00:52:33.215Z,1.00
2022-09-17T00:55:01.284Z,1.00
2022-09-17T00:57:28.183Z,1.00
2022-09-17T00:59:54.714Z,1.00
2022-09-17T01:02:21.276Z,27.10
2022-09-17T01:04:47.901Z,99.90
2022-09-17T01:07:32.831Z,99.90
2022-09-17T01:10:18.325Z,99.90
2022-09-17T01:13:03.290Z,99.90
2022-09-17T01:15:29.805Z,99.90
2022-09-17T01:18:15.077Z,99.90
2022-09-17T01:20:53.576Z,1.00
2022-09-17T01:23:38.983Z,1.00
2022-09-17T01:26:24.350Z,1.00
2022-09-17T01:28:50.832Z,1.00
2022-09-17T01:31:17.532Z,1.00
2022-09-17T01:33:48.526Z,1.00
2022-09-17T01:36:53.865Z,1.00
2022-09-17T01:39:29.933Z,1.00
2022-09-17T01:42:28.532Z,1.00
2022-09-17T01:45:15.945Z,1.00
2022-09-17T01:47:44.156Z,1.00
2022-09-17T01:50:12.300Z,1.00
2022-09-17T01:52:39.195Z,1.00
2022-09-17T01:55:07.007Z,1.00
2022-09-17T01:57:36.360Z,16.20
2022-09-17T02:00:11.271Z,73.90
2022-09-17T02:02:39.506Z,27.20
2022-09-17T02:05:10.265Z,20.00
2022-09-17T02:07:38.978Z,1.00
2022-09-17T02:10:06.751Z,1.00
2022-09-17T02:12:34.435Z,1.00
2022-09-17T02:15:01.270Z,1.00
2022-09-17T02:17:38.198Z,1.00
2022-09-17T02:20:05.013Z,22.20
2022-09-17T02:22:34.370Z,10.60
2022-09-17T02:25:02.603Z,1.00
2022-09-17T02:27:29.094Z,1.00
2022-09-17T02:29:55.621Z,1.00
2022-09-17T02:32:22.220Z,10.30
2022-09-17T02:34:48.752Z,2.70
2022-09-17T02:37:15.309Z,99.90
2022-09-17T02:39:41.943Z,99.90
2022-09-17T02:42:12.448Z,99.90
2022-09-17T02:44:57.710Z,99.90
2022-09-17T02:47:36.327Z,99.90
2022-09-17T02:50:21.019Z,99.90
2022-09-17T02:52:50.578Z,92.90
2022-09-17T02:55:23.629Z,26.10
2022-09-17T02:57:54.576Z,1.00
2022-09-17T03:00:21.551Z,1.00
2022-09-17T03:02:53.797Z,1.00
2022-09-17T03:05:20.716Z,1.00
2022-09-17T03:07:47.829Z,1.00
2022-09-17T03:10:14.359Z,1.00
2022-09-17T03:12:41.062Z,1.00
2022-09-17T03:15:07.784Z,1.00
2022-09-17T03:17:34.322Z,1.00
2022-09-17T03:20:00.843Z,1.00
2022-09-17T03:22:27.452Z,1.00
2022-09-17T03:24:53.997Z,1.00
2022-09-17T03:27:20.548Z,1.00
2022-09-17T03:29:47.077Z,1.00
2022-09-17T03:32:13.601Z,1.00
2022-09-17T03:34:40.143Z,1.00
2022-09-17T03:37:06.668Z,1.00
2022-09-17T03:39:33.217Z,1.00
2022-09-17T03:41:59.744Z,1.00
2022-09-17T03:44:26.287Z,16.80
2022-09-17T03:46:52.901Z,1.00
2022-09-17T03:49:19.500Z,1.00
2022-09-17T03:51:46.024Z,1.00
2022-09-17T03:54:12.733Z,1.00
2022-09-17T03:56:39.267Z,1.00
2022-09-17T03:59:05.817Z,1.00
2022-09-17T04:01:32.522Z,1.00
2022-09-17T04:03:59.256Z,1.00
2022-09-17T04:06:25.829Z,1.00
2022-09-17T04:08:53.059Z,1.00
2022-09-17T04:11:19.593Z,1.00
2022-09-17T04:13:46.151Z,1.00
2022-09-17T04:16:14.813Z,1.00
2022-09-17T04:18:41.499Z,1.00
2022-09-17T04:21:08.041Z,1.00
2022-09-17T04:23:34.582Z,1.00
2022-09-17T04:26:01.107Z,1.00
2022-09-17T04:28:27.677Z,1.00
2022-09-17T04:30:54.269Z,99.90
2022-09-17T04:33:21.062Z,99.90
2022-09-17T04:35:47.986Z,99.90
2022-09-17T04:38:18.331Z,99.90
2022-09-17T04:40:44.934Z,1.00
2022-09-17T04:43:11.648Z,1.00
2022-09-17T04:45:38.180Z,1.00
2022-09-17T04:48:04.730Z,99.90
2022-09-17T04:50:31.300Z,99.90
2022-09-17T04:52:57.844Z,99.90
2022-09-17T04:55:24.524Z,99.90
2022-09-17T04:57:51.834Z,1.00
2022-09-17T05:00:18.650Z,1.00
2022-09-17T05:02:45.809Z,1.00
2022-09-17T05:05:12.342Z,1.00
2022-09-17T05:07:39.328Z,1.00
2022-09-17T05:10:06.352Z,99.90
2022-09-17T05:12:34.560Z,99.90
2022-09-17T05:15:01.386Z,99.90
2022-09-17T05:17:27.927Z,99.90
2022-09-17T05:19:54.475Z,99.90
2022-09-17T05:22:21.734Z,99.90
2022-09-17T05:24:48.395Z,99.90
2022-09-17T05:27:14.936Z,99.90
2022-09-17T05:29:41.462Z,99.90
2022-09-17T05:32:08.006Z,99.90
2022-09-17T05:34:34.669Z,99.90
2022-09-17T05:37:01.232Z,99.90
2022-09-17T05:39:28.756Z,1.00
2022-09-17T05:41:55.348Z,15.50
2022-09-17T05:44:21.943Z,1.00
2022-09-17T05:46:48.599Z,1.00
2022-09-17T05:49:15.246Z,1.00
2022-09-17T05:51:42.133Z,1.00
2022-09-17T05:54:09.131Z,1.00
2022-09-17T05:56:35.666Z,1.00
2022-09-17T05:59:02.335Z,1.00
2022-09-17T06:01:29.919Z,1.00
2022-09-17T06:03:56.594Z,1.00
2022-09-17T06:06:23.233Z,1.00
2022-09-17T06:08:49.807Z,1.00
2022-09-17T06:11:16.329Z,1.00
2022-09-17T06:13:43.724Z,1.00
2022-09-17T06:16:10.286Z,1.00
2022-09-17T06:18:37.030Z,1.00
2022-09-17T06:21:03.785Z,1.00
2022-09-17T06:23:37.130Z,1.00
2022-09-17T06:26:04.203Z,99.90
2022-09-17T06:28:30.742Z,99.90
2022-09-17T06:31:03.887Z,99.90
2022-09-17T06:33:30.693Z,99.90
2022-09-17T06:35:57.712Z,99.90
2022-09-17T06:38:24.255Z,99.90
2022-09-17T06:40:51.761Z,99.90
2022-09-17T06:43:18.443Z,99.90
2022-09-17T06:45:45.056Z,99.90
2022-09-17T06:48:11.597Z,99.90
2022-09-17T06:50:42.511Z,99.90
2022-09-17T06:53:09.385Z,99.90
2022-09-17T06:55:35.923Z,99.90
2022-09-17T06:58:02.468Z,99.90
2022-09-17T07:00:29.629Z,99.90
2022-09-17T07:02:57.719Z,99.90
2022-09-17T07:05:24.760Z,99.90
2022-09-17T07:07:51.459Z,1.00
2022-09-17T07:10:18.044Z,1.00
2022-09-17T07:12:49.174Z,1.00
2022-09-17T07:15:16.477Z,1.00
2022-09-17T07:17:44.447Z,1.40
2022-09-17T07:20:11.173Z,1.40
2022-09-17T07:22:37.732Z,1.00
2022-09-17T07:25:04.403Z,1.00
2022-09-17T07:27:31.217Z,1.00
2022-09-17T07:29:57.857Z,99.90
2022-09-17T07:32:24.517Z,99.90
2022-09-17T07:34:51.371Z,1.00
2022-09-17T07:37:17.936Z,1.00
2022-09-17T07:39:44.480Z,1.00
2022-09-17T07:42:11.052Z,1.00
2022-09-17T07:44:37.599Z,1.00
2022-09-17T07:47:04.315Z,1.00
2022-09-17T07:49:31.369Z,99.90
2022-09-17T07:51:57.909Z,99.90
2022-09-17T07:54:25.136Z,99.90
2022-09-17T07:56:51.670Z,99.90
2022-09-17T07:59:18.257Z,99.90
2022-09-17T08:01:45.130Z,99.90
2022-09-17T08:04:11.777Z,99.90
2022-09-17T08:06:38.486Z,99.90
2022-09-17T08:09:05.034Z,99.90
2022-09-17T08:11:54.660Z,99.90
2022-09-17T08:14:19.471Z,99.90
2022-09-17T08:16:48.089Z,99.90
2022-09-17T08:19:14.638Z,99.90
2022-09-17T08:21:41.159Z,99.90
2022-09-17T08:24:07.714Z,99.90
2022-09-17T08:26:34.271Z,99.90
2022-09-17T08:29:00.899Z,99.90
2022-09-17T08:31:28.517Z,99.90
2022-09-17T08:33:55.118Z,99.90
2022-09-17T08:36:22.826Z,99.90
2022-09-17T08:38:52.047Z,99.90
2022-09-17T08:41:37.291Z,99.90
2022-09-17T08:44:04.742Z,99.90
2022-09-17T08:46:32.272Z,99.90
2022-09-17T08:48:58.788Z,99.90
2022-09-17T08:51:34.468Z,99.90
2022-09-17T08:54:06.694Z,99.90
2022-09-17T08:56:33.286Z,99.90
2022-09-17T08:59:32.320Z,99.90
2022-09-17T09:02:00.760Z,99.90
2022-09-17T09:04:40.480Z,99.90
2022-09-17T09:07:08.499Z,99.90
2022-09-17T09:09:36.576Z,99.90
2022-09-17T09:12:05.009Z,99.90
2022-09-17T09:14:35.983Z,99.90
2022-09-17T09:17:04.437Z,99.90
2022-09-17T09:19:31.936Z,99.90
2022-09-17T09:22:03.617Z,99.90
2022-09-17T09:24:40.011Z,99.90
2022-09-17T09:27:14.861Z,99.90
2022-09-17T09:30:02.116Z,99.90
2022-09-17T09:32:48.950Z,99.90
2022-09-17T09:35:15.506Z,99.90
2022-09-17T09:37:43.100Z,99.90
2022-09-17T09:40:23.300Z,99.90
2022-09-17T09:42:49.877Z,99.90
2022-09-17T09:45:18.239Z,99.90
2022-09-17T09:47:50.845Z,99.90
2022-09-17T09:50:54.758Z,99.90
2022-09-17T09:53:26.137Z,99.90
2022-09-17T09:56:25.640Z,99.90
2022-09-17T09:58:52.194Z,99.90
2022-09-17T10:01:22.265Z,99.90
2022-09-17T10:03:49.513Z,99.90
2022-09-17T10:06:16.328Z,99.90
2022-09-17T10:09:02.801Z,99.90
2022-09-17T10:11:29.863Z,99.90
2022-09-17T10:14:16.307Z,99.90
2022-09-17T10:16:42.866Z,99.90
2022-09-17T10:19:09.368Z,99.90
2022-09-17T10:21:42.564Z,99.90
2022-09-17T10:24:22.400Z,99.90
2022-09-17T10:26:48.937Z,99.90
2022-09-17T10:29:16.532Z,99.90
2022-09-17T10:31:49.756Z,99.90
2022-09-17T10:34:34.475Z,99.90
2022-09-17T10:37:01.014Z,99.90
2022-09-17T10:39:27.565Z,99.90
2022-09-17T10:41:54.563Z,99.90
2022-09-17T10:44:21.697Z,99.90
2022-09-17T10:46:48.284Z,99.90
2022-09-17T10:49:22.658Z,99.90
2022-09-17T10:51:49.191Z,99.90
2022-09-17T10:54:25.231Z,99.90
2022-09-17T10:56:53.237Z,99.90
2022-09-17T10:59:19.980Z,99.90
2022-09-17T11:01:59.301Z,99.90
2022-09-17T11:04:29.061Z,99.90
2022-09-17T11:07:01.632Z,99.90
2022-09-17T11:09:46.469Z,99.90
2022-09-17T11:12:19.133Z,99.90
2022-09-17T11:14:49.022Z,99.90
2022-09-17T11:17:28.118Z,99.90
2022-09-17T11:20:04.305Z,99.90
2022-09-17T11:22:49.156Z,99.90
2022-09-17T11:25:34.772Z,99.90
2022-09-17T11:28:04.983Z,99.90
2022-09-17T11:30:51.745Z,99.90
2022-09-17T11:33:30.069Z,99.90
2022-09-17T11:36:00.220Z,99.90
2022-09-17T11:38:28.323Z,99.90
2022-09-17T11:41:03.122Z,99.90
2022-09-17T11:43:31.449Z,99.90
2022-09-17T11:46:03.212Z,99.90
2022-09-17T11:48:41.947Z,99.90
2022-09-17T11:51:34.893Z,99.90
2022-09-17T11:54:05.028Z,99.90
2022-09-17T11:56:48.017Z,99.90
2022-09-17T11:59:14.617Z,99.90
2022-09-17T12:01:45.373Z,99.90
2022-09-17T12:04:27.451Z,99.90
2022-09-17T12:06:57.851Z,99.90
2022-09-17T12:09:28.283Z,99.90
2022-09-17T12:12:01.891Z,99.90
2022-09-17T12:14:36.499Z,99.90
2022-09-17T12:17:03.025Z,99.90
2022-09-17T12:19:46.410Z,99.90
2022-09-17T12:22:20.983Z,99.90
2022-09-17T12:24:49.688Z,99.90
2022-09-17T12:27:35.111Z,99.90
2022-09-17T12:30:11.831Z,99.90
2022-09-17T12:32:57.418Z,99.90
2022-09-17T12:35:53.062Z,99.90
2022-09-17T12:38:23.330Z,99.90
2022-09-17T12:41:00.815Z,99.90
2022-09-17T12:43:43.071Z,99.90
2022-09-17T12:46:34.725Z,99.90
2022-09-17T12:49:19.786Z,99.90
2022-09-17T12:51:56.525Z,99.90
2022-09-17T12:54:45.113Z,99.90
2022-09-17T12:57:21.418Z,99.90
2022-09-17T13:00:03.965Z,1.00
2022-09-17T13:02:35.529Z,1.00
2022-09-17T13:05:02.466Z,1.00
2022-09-17T13:07:39.063Z,1.00
2022-09-17T13:10:18.238Z,1.00
2022-09-17T13:12:46.064Z,1.00
2022-09-17T13:15:12.914Z,1.00
2022-09-17T13:18:12.851Z,1.00
2022-09-17T13:20:53.625Z,99.90
2022-09-17T13:23:32.413Z,99.90
2022-09-17T13:26:00.793Z,99.90
2022-09-17T13:28:36.225Z,99.90
2022-09-17T13:31:04.439Z,99.90
2022-09-17T13:33:53.187Z,99.90
2022-09-17T13:36:36.100Z,99.90
2022-09-17T13:39:02.847Z,99.90
2022-09-17T13:41:31.967Z,99.90
2022-09-17T13:43:58.517Z,99.90
2022-09-17T13:46:25.302Z,99.90
2022-09-17T13:48:56.557Z,99.90
2022-09-17T13:51:32.246Z,99.90
2022-09-17T13:53:59.468Z,99.90
2022-09-17T13:56:32.997Z,99.90
2022-09-17T13:59:13.168Z,99.90
2022-09-17T14:01:48.867Z,99.90
2022-09-17T14:04:33.995Z,99.90
2022-09-17T14:07:00.540Z,99.90
2022-09-17T14:09:33.286Z,99.90
2022-09-17T14:12:02.608Z,99.90
2022-09-17T14:14:47.346Z,99.90
2022-09-17T14:17:15.751Z,99.90
2022-09-17T14:19:42.516Z,99.90
2022-09-17T14:22:09.006Z,99.90
2022-09-17T14:24:44.430Z,99.90
2022-09-17T14:27:12.509Z,99.90
2022-09-17T14:30:08.646Z,99.90
2022-09-17T14:33:01.241Z,99.90
2022-09-17T14:35:36.932Z,99.90
2022-09-17T14:38:07.960Z,99.90
2022-09-17T14:40:34.716Z,1.00
2022-09-17T14:43:01.535Z,1.00
2022-09-17T14:45:28.810Z,1.00
2022-09-17T14:48:13.917Z,1.00
2022-09-17T14:50:40.449Z,99.90
2022-09-17T14:53:07.624Z,99.90
2022-09-17T14:55:34.305Z,99.90
2022-09-17T14:58:04.939Z,99.90
2022-09-17T15:00:33.785Z,99.90
2022-09-17T15:03:00.532Z,99.90
2022-09-17T15:05:32.865Z,99.90
2022-09-17T15:08:05.716Z,99.90
2022-09-17T15:10:32.576Z,99.90
2022-09-17T15:12:59.237Z,99.90
2022-09-17T15:15:26.269Z,99.90
2022-09-17T15:17:52.918Z,99.90
2022-09-17T15:20:20.151Z,99.90
2022-09-17T15:22:48.645Z,99.90
2022-09-17T15:25:16.106Z,99.90
2022-09-17T15:27:43.523Z,99.90
2022-09-17T15:30:16.709Z,99.90
2022-09-17T15:32:56.195Z,99.90
2022-09-17T15:35:22.728Z,99.90
2022-09-17T15:38:21.057Z,99.90
2022-09-17T15:40:40.949Z,99.90
2022-09-17T15:43:26.818Z,99.90
2022-09-17T15:45:53.576Z,99.90
2022-09-17T15:48:26.173Z,99.90
2022-09-17T15:50:54.015Z,99.90
2022-09-17T15:53:27.057Z,99.90
2022-09-17T15:56:05.742Z,99.90
2022-09-17T15:58:36.309Z,99.90
2022-09-17T16:01:18.600Z,99.90
2022-09-17T16:03:45.314Z,99.90
2022-09-17T16:06:17.922Z,99.90
2022-09-17T16:08:50.589Z,99.90
2022-09-17T16:11:17.277Z,99.90
2022-09-17T16:13:45.871Z,99.90
2022-09-17T16:16:14.359Z,99.90
2022-09-17T16:18:40.933Z,99.90
2022-09-17T16:21:09.112Z,99.90
2022-09-17T16:23:35.664Z,99.90
2022-09-17T16:26:02.199Z,99.90
2022-09-17T16:28:28.769Z,99.90
2022-09-17T16:30:55.306Z,99.90
2022-09-17T16:33:21.935Z,99.90
2022-09-17T16:35:48.495Z,99.90
2022-09-17T16:38:15.042Z,99.90
2022-09-17T16:40:46.500Z,99.90
2022-09-17T16:43:13.206Z,99.90
2022-09-17T16:45:39.759Z,99.90
2022-09-17T16:48:06.669Z,99.90
2022-09-17T16:50:33.289Z,99.90
2022-09-17T16:53:04.682Z,99.90
2022-09-17T16:55:31.579Z,99.90
2022-09-17T16:57:58.785Z,99.90
2022-09-17T17:00:25.333Z,99.90
2022-09-17T17:02:52.783Z,99.90
2022-09-17T17:05:19.351Z,99.90
2022-09-17T17:07:45.913Z,99.90
2022-09-17T17:10:12.776Z,99.90
2022-09-17T17:12:39.450Z,99.90
2022-09-17T17:15:06.430Z,99.90
2022-09-17T17:17:35.545Z,1.40
2022-09-17T17:20:07.031Z,1.00
2022-09-17T17:22:33.693Z,1.00
2022-09-17T17:25:00.248Z,1.00
2022-09-17T17:27:26.808Z,1.00
2022-09-17T17:29:53.352Z,1.00
2022-09-17T17:32:19.885Z,1.00
2022-09-17T17:34:46.437Z,99.90
2022-09-17T17:37:14.233Z,99.90
2022-09-17T17:39:41.027Z,99.90
2022-09-17T17:42:07.685Z,99.90
2022-09-17T17:44:34.251Z,99.90
2022-09-17T17:47:00.825Z,1.00
2022-09-17T17:49:27.435Z,1.00
2022-09-17T17:51:53.959Z,1.00
2022-09-17T17:54:21.920Z,1.00
2022-09-17T17:56:48.703Z,1.00
2022-09-17T17:59:15.400Z,1.00
2022-09-17T18:01:42.030Z,1.00
2022-09-17T18:04:08.653Z,1.00
2022-09-17T18:06:37.864Z,1.00
2022-09-17T18:09:05.173Z,1.00
2022-09-17T18:11:31.828Z,1.00
2022-09-17T18:14:00.295Z,1.00
2022-09-17T18:16:26.893Z,1.00
2022-09-17T18:18:53.565Z,1.00
2022-09-17T18:21:20.943Z,1.00
2022-09-17T18:23:47.602Z,1.00
2022-09-17T18:26:21.107Z,1.00
2022-09-17T18:28:47.797Z,1.00
2022-09-17T18:31:20.688Z,1.00
2022-09-17T18:33:47.277Z,1.00
2022-09-17T18:36:13.806Z,1.00
2022-09-17T18:38:40.612Z,1.00
2022-09-17T18:41:08.346Z,1.00
2022-09-17T18:43:34.899Z,1.00
2022-09-17T18:46:01.435Z,1.00
2022-09-17T18:48:28.044Z,1.00
2022-09-17T18:51:01.565Z,1.00
2022-09-17T18:53:28.513Z,1.00
2022-09-17T18:55:55.474Z,1.00
2022-09-17T18:58:22.077Z,1.00
2022-09-17T19:00:48.659Z,1.00
2022-09-17T19:03:15.211Z,1.00
2022-09-17T19:05:41.787Z,1.00
2022-09-17T19:08:08.321Z,1.00
2022-09-17T19:10:34.900Z,1.00
2022-09-17T19:13:03.207Z,1.00
2022-09-17T19:15:30.273Z,1.00
2022-09-17T19:17:58.446Z,1.00
2022-09-17T19:20:25.576Z,1.00
2022-09-17T19:22:52.624Z,1.00
2022-09-17T19:25:23.243Z,1.00
2022-09-17T19:27:50.074Z,1.00
2022-09-17T19:30:16.905Z,1.00
2022-09-17T19:32:47.064Z,1.00
2022-09-17T19:35:13.883Z,1.00
2022-09-17T19:37:40.408Z,1.00
2022-09-17T19:40:07.615Z,1.00
2022-09-17T19:42:34.360Z,1.00
2022-09-17T19:45:00.909Z,1.00
2022-09-17T19:47:27.431Z,1.00
2022-09-17T19:49:53.999Z,1.00
2022-09-17T19:52:20.524Z,1.00
2022-09-17T19:54:47.081Z,1.00
2022-09-17T19:57:13.785Z,1.00
2022-09-17T19:59:40.384Z,1.00
2022-09-17T20:02:06.976Z,1.00
2022-09-17T20:04:34.041Z,1.00
2022-09-17T20:07:03.677Z,1.00
2022-09-17T20:09:30.416Z,1.00
2022-09-17T20:11:58.797Z,1.00
2022-09-17T20:14:25.788Z,1.00
2022-09-17T20:16:52.320Z,1.00
2022-09-17T20:19:18.886Z,1.00
2022-09-17T20:21:45.426Z,1.00
2022-09-17T20:24:14.273Z,1.00
2022-09-17T20:26:40.820Z,1.00
2022-09-17T20:29:07.363Z,1.00
2022-09-17T20:31:33.968Z,1.00
2022-09-17T20:34:01.086Z,1.00
2022-09-17T20:36:28.561Z,1.00
2022-09-17T20:39:11.078Z,1.00
2022-09-17T20:41:39.116Z,1.00
2022-09-17T20:44:06.072Z,1.00
2022-09-17T20:46:32.694Z,1.00
2022-09-17T20:48:59.556Z,1.00
2022-09-17T20:51:26.821Z,1.00
2022-09-17T20:53:53.429Z,1.00
2022-09-17T20:56:20.869Z,1.00
2022-09-17T20:58:53.423Z,1.00
2022-09-17T21:01:21.887Z,1.00
2022-09-17T21:03:50.128Z,1.00
2022-09-17T21:06:20.564Z,1.00
2022-09-17T21:08:47.274Z,1.00
2022-09-17T21:11:13.827Z,1.00
2022-09-17T21:13:40.607Z,1.00
2022-09-17T21:16:07.322Z,1.00
2022-09-17T21:18:38.802Z,1.00
2022-09-17T21:21:06.649Z,1.00
2022-09-17T21:23:33.722Z,1.00
2022-09-17T21:26:03.527Z,1.00
2022-09-17T21:28:33.162Z,1.00
2022-09-17T21:31:06.160Z,1.00
2022-09-17T21:33:32.924Z,1.00
2022-09-17T21:36:05.917Z,1.00
2022-09-17T21:38:32.723Z,1.00
2022-09-17T21:41:00.161Z,1.00
2022-09-17T21:43:26.834Z,1.00
2022-09-17T21:45:57.094Z,1.00
2022-09-17T21:48:23.625Z,1.00
2022-09-17T21:50:50.211Z,1.00
2022-09-17T21:53:16.735Z,1.00
2022-09-17T21:55:43.272Z,1.00
2022-09-17T21:58:09.848Z,1.00
2022-09-17T22:00:37.224Z,1.00
2022-09-17T22:03:03.929Z,1.00
2022-09-17T22:05:32.239Z,1.00
2022-09-17T22:07:58.768Z,1.00
2022-09-17T22:10:25.321Z,1.00
2022-09-17T22:12:51.848Z,1.00
2022-09-17T22:15:18.393Z,1.00
2022-09-17T22:17:44.949Z,1.00
2022-09-17T22:20:11.561Z,1.00
2022-09-17T22:22:38.094Z,1.00
2022-09-17T22:25:04.867Z,1.00
2022-09-17T22:27:32.260Z,1.00
2022-09-17T22:29:58.804Z,1.00
2022-09-17T22:32:25.337Z,1.00
2022-09-17T22:34:53.080Z,1.00
2022-09-17T22:37:19.665Z,1.00
2022-09-17T22:39:46.219Z,1.00
2022-09-17T22:42:12.753Z,1.00
2022-09-17T22:44:40.951Z,1.00
2022-09-17T22:47:07.467Z,1.00
2022-09-17T22:49:35.125Z,1.00
2022-09-17T22:52:01.682Z,1.00
2022-09-17T22:54:28.223Z,1.00
2022-09-17T22:56:54.821Z,1.00
2022-09-17T22:59:21.615Z,1.00
2022-09-17T23:01:48.224Z,1.00
2022-09-17T23:04:14.833Z,1.00
2022-09-17T23:06:42.217Z,1.00
2022-09-17T23:09:08.898Z,1.00
2022-09-17T23:11:36.411Z,17.50
2022-09-17T23:14:04.178Z,21.20
2022-09-17T23:16:34.509Z,43.00
2022-09-17T23:19:02.279Z,32.20
2022-09-17T23:21:28.849Z,17.80
2022-09-17T23:23:55.374Z,24.60
2022-09-17T23:26:22.434Z,58.00
2022-09-17T23:28:49.139Z,99.90
2022-09-17T23:31:16.585Z,99.90
2022-09-17T23:33:43.205Z,99.90
2022-09-17T23:36:13.599Z,99.90
2022-09-17T23:38:43.261Z,99.90
2022-09-17T23:41:19.947Z,99.90
2022-09-17T23:43:47.604Z,99.90
2022-09-17T23:46:14.466Z,99.90
2022-09-17T23:48:41.029Z,99.90
2022-09-17T23:51:07.763Z,99.90
2022-09-17T23:53:34.432Z,99.90
2022-09-17T23:56:01.208Z,99.90
2022-09-17T23:58:31.225Z,99.90
